createdAt,value
2023-04-24T00:01:14.076Z,20.41
2023-04-24T00:03:42.865Z,20.40
2023-04-24T00:06:11.346Z,20.41
2023-04-24T00:08:39.814Z,20.41
2023-04-24T00:11:10.257Z,20.40
2023-04-24T00:13:39.594Z,20.40
2023-04-24T00:16:08.062Z,20.40
2023-04-24T00:18:36.489Z,20.39
2023-04-24T00:21:05.286Z,20.40
2023-04-24T00:23:33.705Z,20.39
2023-04-24T00:26:02.175Z,20.38
2023-04-24T00:28:31.921Z,20.39
2023-04-24T00:31:00.426Z,20.38
2023-04-24T00:33:29.012Z,20.39
2023-04-24T00:35:57.539Z,20.38
2023-04-24T00:38:26.245Z,20.38
2023-04-24T00:40:55.564Z,20.38
2023-04-24T00:43:24.432Z,20.38
2023-04-24T00:45:54.339Z,20.38
2023-04-24T00:48:23.410Z,20.37
2023-04-24T00:50:52.027Z,20.37
2023-04-24T00:53:20.609Z,20.37
2023-04-24T00:55:49.377Z,20.37
2023-04-24T00:58:17.945Z,20.36
2023-04-24T01:00:47.156Z,20.36
2023-04-24T01:03:17.905Z,20.36
2023-04-24T01:05:46.698Z,20.35
2023-04-24T01:08:16.173Z,20.36
2023-04-24T01:10:46.947Z,20.34
2023-04-24T01:13:15.811Z,20.35
2023-04-24T01:15:46.956Z,20.35
2023-04-24T01:18:17.336Z,20.35
2023-04-24T01:20:47.786Z,20.32
2023-04-24T01:23:17.635Z,20.34
2023-04-24T01:25:46.912Z,20.34
2023-04-24T01:28:15.990Z,20.34
2023-04-24T01:30:44.886Z,20.33
2023-04-24T01:33:13.758Z,20.32
2023-04-24T01:35:42.326Z,20.32
2023-04-24T01:38:10.829Z,20.32
2023-04-24T01:40:40.732Z,20.31
2023-04-24T01:43:09.456Z,20.31
2023-04-24T01:45:37.966Z,20.32
2023-04-24T01:48:07.125Z,20.32
2023-04-24T01:50:35.816Z,20.33
2023-04-24T01:53:05.906Z,20.32
2023-04-24T01:55:34.365Z,20.32
2023-04-24T01:58:04.234Z,20.32
2023-04-24T02:00:32.928Z,20.31
2023-04-24T02:03:02.950Z,20.31
2023-04-24T02:05:31.649Z,20.31
2023-04-24T02:08:00.127Z,20.30
2023-04-24T02:10:28.562Z,20.31
2023-04-24T02:12:56.991Z,20.31
2023-04-24T02:15:27.940Z,20.30
2023-04-24T02:17:56.312Z,20.30
2023-04-24T02:20:25.125Z,20.30
2023-04-24T02:22:55.938Z,20.30
2023-04-24T02:25:24.605Z,20.29
2023-04-24T02:27:53.058Z,20.28
2023-04-24T02:30:21.574Z,20.28
2023-04-24T02:32:51.346Z,20.28
2023-04-24T02:35:20.323Z,20.29
2023-04-24T02:37:48.812Z,20.28
2023-04-24T02:40:17.268Z,20.29
2023-04-24T02:42:45.671Z,20.29
2023-04-24T02:45:14.086Z,20.28
2023-04-24T02:47:42.624Z,20.27
2023-04-24T02:50:12.494Z,20.27
2023-04-24T02:52:40.878Z,20.27
2023-04-24T02:55:09.961Z,20.27
2023-04-24T02:57:38.512Z,20.25
2023-04-24T03:00:09.887Z,20.25
2023-04-24T03:02:40.332Z,20.24
2023-04-24T03:05:09.988Z,20.25
2023-04-24T03:07:40.018Z,20.24
2023-04-24T03:10:09.667Z,20.25
2023-04-24T03:12:38.048Z,20.25
2023-04-24T03:15:07.396Z,20.23
2023-04-24T03:17:39.059Z,20.25
2023-04-24T03:20:09.261Z,20.24
2023-04-24T03:22:39.793Z,20.24
2023-04-24T03:25:11.079Z,20.24
2023-04-24T03:27:40.350Z,20.23
2023-04-24T03:30:23.199Z,20.24
2023-04-24T03:32:57.274Z,20.24
2023-04-24T03:35:29.712Z,20.24
2023-04-24T03:38:01.833Z,20.23
2023-04-24T03:40:48.695Z,20.23
2023-04-24T03:43:55.364Z,20.23
2023-04-24T03:46:23.816Z,20.24
2023-04-24T03:48:59.423Z,20.24
2023-04-24T03:51:32.545Z,20.23
2023-04-24T03:54:12.460Z,20.24
2023-04-24T03:56:42.275Z,20.22
2023-04-24T03:59:10.788Z,20.23
2023-04-24T04:01:42.180Z,20.23
2023-04-24T04:04:16.539Z,20.23
2023-04-24T04:06:47.498Z,20.22
2023-04-24T04:09:17.583Z,20.22
2023-04-24T04:11:46.177Z,20.22
2023-04-24T04:14:14.602Z,20.22
2023-04-24T04:16:46.793Z,20.20
2023-04-24T04:19:15.642Z,20.22
2023-04-24T04:21:44.188Z,20.25
2023-04-24T04:24:27.595Z,20.27
2023-04-24T04:26:57.659Z,20.29
2023-04-24T04:29:38.370Z,20.32
2023-04-24T04:32:10.214Z,20.36
2023-04-24T04:34:40.636Z,20.37
2023-04-24T04:37:12.165Z,20.41
2023-04-24T04:40:07.855Z,20.42
2023-04-24T04:42:41.994Z,20.45
2023-04-24T04:45:11.953Z,20.44
2023-04-24T04:47:53.272Z,20.45
2023-04-24T04:50:22.060Z,20.44
2023-04-24T04:52:52.598Z,20.41
2023-04-24T04:55:29.505Z,20.42
2023-04-24T04:58:16.374Z,20.41
2023-04-24T05:00:47.194Z,20.40
2023-04-24T05:03:29.665Z,20.39
2023-04-24T05:06:03.718Z,20.38
2023-04-24T05:08:35.658Z,20.41
2023-04-24T05:11:07.281Z,20.40
2023-04-24T05:13:40.206Z,20.41
2023-04-24T05:16:29.911Z,20.42
2023-04-24T05:18:58.797Z,20.41
2023-04-24T05:21:32.735Z,20.41
2023-04-24T05:24:02.193Z,20.42
2023-04-24T05:26:59.587Z,20.43
2023-04-24T05:29:34.166Z,20.45
2023-04-24T05:32:02.744Z,20.46
2023-04-24T05:34:32.658Z,20.46
2023-04-24T05:37:01.102Z,20.43
2023-04-24T05:39:29.585Z,20.40
2023-04-24T05:42:00.431Z,20.39
2023-04-24T05:44:28.894Z,20.38
2023-04-24T05:46:57.806Z,20.36
2023-04-24T05:49:26.455Z,20.36
2023-04-24T05:51:55.126Z,20.37
2023-04-24T05:54:24.215Z,20.35
2023-04-24T05:56:55.434Z,20.35
2023-04-24T05:59:35.104Z,20.35
2023-04-24T06:02:04.478Z,20.35
2023-04-24T06:04:34.138Z,20.35
2023-04-24T06:07:02.893Z,20.35
2023-04-24T06:09:31.474Z,20.35
2023-04-24T06:12:00.964Z,20.34
2023-04-24T06:14:38.773Z,20.34
2023-04-24T06:17:27.424Z,20.34
2023-04-24T06:19:55.885Z,20.35
2023-04-24T06:22:26.546Z,20.35
2023-04-24T06:24:55.210Z,20.35
2023-04-24T06:27:23.643Z,20.35
2023-04-24T06:29:55.487Z,20.34
2023-04-24T06:32:24.896Z,20.33
2023-04-24T06:34:53.685Z,20.34
2023-04-24T06:37:22.516Z,20.32
2023-04-24T06:39:51.005Z,20.34
2023-04-24T06:42:21.736Z,20.34
2023-04-24T06:44:53.133Z,20.34
2023-04-24T06:47:21.625Z,20.32
2023-04-24T06:49:51.899Z,20.32
2023-04-24T06:52:20.779Z,20.31
2023-04-24T06:54:49.288Z,20.30
2023-04-24T06:57:18.050Z,20.29
2023-04-24T06:59:46.471Z,20.28
2023-04-24T07:02:16.319Z,20.28
2023-04-24T07:04:44.906Z,20.28
2023-04-24T07:07:15.152Z,20.28
2023-04-24T07:09:45.575Z,20.28
2023-04-24T07:12:14.493Z,20.29
2023-04-24T07:14:43.386Z,20.29
2023-04-24T07:17:14.165Z,20.28
2023-04-24T07:19:44.396Z,20.29
2023-04-24T07:22:17.714Z,20.28
2023-04-24T07:24:46.338Z,20.28
2023-04-24T07:27:16.021Z,20.27
2023-04-24T07:29:45.248Z,20.27
2023-04-24T07:32:14.454Z,20.28
2023-04-24T07:34:44.237Z,20.29
2023-04-24T07:37:12.840Z,20.28
2023-04-24T07:39:41.526Z,20.27
2023-04-24T07:42:10.155Z,20.28
2023-04-24T07:44:38.557Z,20.28
2023-04-24T07:47:07.127Z,20.28
2023-04-24T07:49:36.083Z,20.27
2023-04-24T07:52:06.008Z,20.27
2023-04-24T07:54:34.548Z,20.26
2023-04-24T07:57:03.322Z,20.27
2023-04-24T07:59:31.789Z,20.26
2023-04-24T08:02:01.837Z,20.27
2023-04-24T08:04:30.555Z,20.27
2023-04-24T08:06:59.071Z,20.27
2023-04-24T08:09:28.886Z,20.27
2023-04-24T08:11:57.530Z,20.26
2023-04-24T08:14:26.101Z,20.26
2023-04-24T08:16:57.030Z,20.27
2023-04-24T08:19:26.471Z,20.27
2023-04-24T08:21:54.960Z,20.27
2023-04-24T08:24:25.110Z,20.26
2023-04-24T08:26:57.704Z,20.26
2023-04-24T08:29:27.770Z,20.25
2023-04-24T08:31:56.534Z,20.27
2023-04-24T08:34:25.091Z,20.26
2023-04-24T08:36:53.583Z,20.26
2023-04-24T08:39:24.765Z,20.26
2023-04-24T08:41:57.221Z,20.25
2023-04-24T08:44:25.759Z,20.26
2023-04-24T08:46:55.516Z,20.25
2023-04-24T08:49:26.317Z,20.24
2023-04-24T08:51:55.417Z,20.24
2023-04-24T08:54:23.898Z,20.25
2023-04-24T08:56:54.613Z,20.26
2023-04-24T08:59:24.849Z,20.25
2023-04-24T09:01:54.074Z,20.24
2023-04-24T09:04:25.684Z,20.24
2023-04-24T09:06:58.293Z,20.24
2023-04-24T09:09:27.375Z,20.24
2023-04-24T09:11:56.528Z,20.25
2023-04-24T09:14:26.248Z,20.26
2023-04-24T09:16:55.816Z,20.28
2023-04-24T09:19:24.257Z,20.29
2023-04-24T09:21:55.182Z,20.28
2023-04-24T09:24:24.344Z,20.30
2023-04-24T09:26:59.416Z,20.28
2023-04-24T09:29:29.910Z,20.29
2023-04-24T09:31:58.307Z,20.30
2023-04-24T09:34:28.296Z,20.28
2023-04-24T09:36:56.941Z,20.29
2023-04-24T09:39:25.413Z,20.28
2023-04-24T09:41:56.611Z,20.27
2023-04-24T09:44:28.085Z,20.27
2023-04-24T09:46:59.397Z,20.27
2023-04-24T09:49:29.302Z,20.28
2023-04-24T09:52:05.541Z,20.26
2023-04-24T09:54:34.201Z,20.26
2023-04-24T09:57:03.118Z,20.26
2023-04-24T09:59:31.846Z,20.27
2023-04-24T10:02:03.547Z,20.27
2023-04-24T10:04:32.118Z,20.27
2023-04-24T10:07:02.006Z,20.26
2023-04-24T10:09:30.470Z,20.26
2023-04-24T10:11:59.037Z,20.27
2023-04-24T10:14:27.810Z,20.28
2023-04-24T10:16:57.578Z,20.27
2023-04-24T10:19:28.323Z,20.27
2023-04-24T10:21:58.113Z,20.27
2023-04-24T10:24:26.881Z,20.26
2023-04-24T10:26:57.816Z,20.25
2023-04-24T10:29:26.786Z,20.26
2023-04-24T10:31:55.446Z,20.25
2023-04-24T10:34:25.582Z,20.24
2023-04-24T10:36:58.466Z,20.25
2023-04-24T10:39:28.673Z,20.25
2023-04-24T10:41:58.834Z,20.25
2023-04-24T10:44:27.742Z,20.26
2023-04-24T10:46:57.777Z,20.26
2023-04-24T10:49:33.911Z,20.25
2023-04-24T10:52:06.373Z,20.24
2023-04-24T10:54:38.255Z,20.24
2023-04-24T10:57:30.285Z,20.23
2023-04-24T11:00:20.217Z,20.21
2023-04-24T11:02:54.023Z,20.21
2023-04-24T11:05:24.915Z,20.21
2023-04-24T11:08:14.098Z,20.22
2023-04-24T11:10:45.577Z,20.25
2023-04-24T11:13:17.382Z,20.25
2023-04-24T11:15:46.025Z,20.27
2023-04-24T11:18:17.829Z,20.30
2023-04-24T11:20:48.514Z,20.31
2023-04-24T11:23:20.132Z,20.31
2023-04-24T11:26:15.153Z,20.31
2023-04-24T11:28:48.353Z,20.32
2023-04-24T11:31:38.758Z,20.35
2023-04-24T11:34:11.552Z,20.36
2023-04-24T11:36:40.370Z,20.37
2023-04-24T11:39:10.961Z,20.37
2023-04-24T11:41:39.897Z,20.38
2023-04-24T11:44:10.063Z,20.38
2023-04-24T11:46:41.324Z,20.39
2023-04-24T11:49:10.211Z,20.37
2023-04-24T11:51:52.278Z,20.39
2023-04-24T11:54:23.493Z,20.38
2023-04-24T11:56:52.034Z,20.38
2023-04-24T11:59:20.673Z,20.38
2023-04-24T12:01:49.712Z,20.38
2023-04-24T12:04:19.968Z,20.38
2023-04-24T12:07:01.736Z,20.38
2023-04-24T12:09:42.646Z,20.38
2023-04-24T12:12:13.118Z,20.39
2023-04-24T12:14:46.150Z,20.39
2023-04-24T12:17:14.553Z,20.40
2023-04-24T12:19:47.871Z,20.39
2023-04-24T12:22:16.402Z,20.39
2023-04-24T12:25:02.647Z,20.40
2023-04-24T12:27:32.152Z,20.39
2023-04-24T12:30:01.585Z,20.41
2023-04-24T12:32:30.200Z,20.42
2023-04-24T12:34:59.279Z,20.42
2023-04-24T12:37:28.942Z,20.41
2023-04-24T12:40:07.962Z,20.41
2023-04-24T12:42:37.792Z,20.43
2023-04-24T12:45:09.022Z,20.44
2023-04-24T12:47:37.643Z,20.44
2023-04-24T12:50:07.962Z,20.44
2023-04-24T12:52:36.458Z,20.44
2023-04-24T12:55:08.991Z,20.45
2023-04-24T12:57:39.075Z,20.48
2023-04-24T13:00:09.735Z,20.52
2023-04-24T13:02:38.536Z,20.55
2023-04-24T13:05:08.448Z,20.54
2023-04-24T13:07:36.863Z,20.54
2023-04-24T13:10:07.979Z,20.53
2023-04-24T13:12:37.058Z,20.52
2023-04-24T13:15:06.582Z,20.51
2023-04-24T13:17:35.174Z,20.49
2023-04-24T13:20:03.827Z,20.49
2023-04-24T13:22:32.322Z,20.49
2023-04-24T13:25:02.323Z,20.50
2023-04-24T13:27:32.267Z,20.49
2023-04-24T13:30:00.709Z,20.50
2023-04-24T13:32:29.839Z,20.50
2023-04-24T13:34:58.905Z,20.49
2023-04-24T13:37:27.456Z,20.48
2023-04-24T13:39:55.890Z,20.47
2023-04-24T13:42:24.333Z,20.47
2023-04-24T13:44:54.990Z,20.45
2023-04-24T13:47:23.476Z,20.45
2023-04-24T13:49:51.956Z,20.45
2023-04-24T13:52:20.616Z,20.44
2023-04-24T13:54:49.085Z,20.43
2023-04-24T13:57:18.151Z,20.43
2023-04-24T13:59:47.200Z,20.41
2023-04-24T14:02:16.982Z,20.42
2023-04-24T14:04:45.700Z,20.41
2023-04-24T14:07:14.143Z,20.40
2023-04-24T14:09:42.592Z,20.40
2023-04-24T14:12:11.090Z,20.39
2023-04-24T14:14:39.544Z,20.39
2023-04-24T14:17:07.956Z,20.38
2023-04-24T14:19:37.703Z,20.38
2023-04-24T14:22:06.202Z,20.38
2023-04-24T14:24:34.614Z,20.37
2023-04-24T14:27:03.129Z,20.36
2023-04-24T14:29:34.912Z,20.38
2023-04-24T14:32:03.777Z,20.37
2023-04-24T14:34:32.157Z,20.36
2023-04-24T14:37:02.149Z,20.36
2023-04-24T14:39:30.725Z,20.35
2023-04-24T14:41:59.118Z,20.34
2023-04-24T14:44:27.489Z,20.36
2023-04-24T14:46:56.029Z,20.35
2023-04-24T14:49:25.363Z,20.34
2023-04-24T14:51:53.791Z,20.32
2023-04-24T14:54:24.281Z,20.33
2023-04-24T14:56:52.974Z,20.30
2023-04-24T14:59:21.714Z,20.30
2023-04-24T15:01:56.731Z,20.29
2023-04-24T15:04:32.241Z,20.29
2023-04-24T15:07:01.269Z,20.29
2023-04-24T15:09:32.732Z,20.29
2023-04-24T15:12:02.635Z,20.29
2023-04-24T15:14:31.197Z,20.27
2023-04-24T15:16:59.976Z,20.27
2023-04-24T15:19:28.580Z,20.27
2023-04-24T15:21:56.968Z,20.27
2023-04-24T15:24:25.485Z,20.28
2023-04-24T15:26:57.380Z,20.26
2023-04-24T15:29:27.931Z,20.29
2023-04-24T15:31:56.551Z,20.29
2023-04-24T15:34:25.139Z,20.29
2023-04-24T15:36:53.681Z,20.30
2023-04-24T15:39:24.709Z,20.30
2023-04-24T15:41:54.114Z,20.29
2023-04-24T15:44:24.476Z,20.30
2023-04-24T15:46:53.197Z,20.30
2023-04-24T15:49:21.707Z,20.30
2023-04-24T15:51:50.127Z,20.31
2023-04-24T15:54:18.582Z,20.30
2023-04-24T15:56:47.039Z,20.30
2023-04-24T15:59:15.562Z,20.29
2023-04-24T16:01:45.761Z,20.30
2023-04-24T16:04:14.541Z,20.30
2023-04-24T16:06:43.296Z,20.29
2023-04-24T16:09:13.392Z,20.29
2023-04-24T16:11:41.944Z,20.29
2023-04-24T16:14:10.787Z,20.30
2023-04-24T16:16:39.973Z,20.30
2023-04-24T16:19:09.872Z,20.29
2023-04-24T16:21:38.390Z,20.29
2023-04-24T16:24:07.247Z,20.29
2023-04-24T16:26:35.773Z,20.29
2023-04-24T16:29:04.183Z,20.29
2023-04-24T16:31:33.006Z,20.27
2023-04-24T16:34:01.481Z,20.24
2023-04-24T16:36:31.371Z,20.23
2023-04-24T16:39:01.025Z,20.23
2023-04-24T16:41:29.510Z,20.25
2023-04-24T16:43:58.203Z,20.28
2023-04-24T16:46:27.583Z,20.30
2023-04-24T16:48:56.175Z,20.33
2023-04-24T16:51:24.631Z,20.36
2023-04-24T16:53:54.412Z,20.37
2023-04-24T16:56:23.148Z,20.38
2023-04-24T16:58:51.898Z,20.39
2023-04-24T17:01:20.468Z,20.40
2023-04-24T17:03:49.024Z,20.42
2023-04-24T17:06:17.552Z,20.43
2023-04-24T17:08:46.318Z,20.45
2023-04-24T17:11:16.219Z,20.47
2023-04-24T17:13:44.726Z,20.47
2023-04-24T17:16:13.315Z,20.50
2023-04-24T17:18:41.808Z,20.51
2023-04-24T17:21:10.223Z,20.52
2023-04-24T17:23:38.977Z,20.54
2023-04-24T17:26:07.503Z,20.55
2023-04-24T17:28:37.509Z,20.55
2023-04-24T17:31:06.346Z,20.57
2023-04-24T17:33:34.995Z,20.58
2023-04-24T17:36:03.610Z,20.60
2023-04-24T17:38:32.179Z,20.60
2023-04-24T17:41:01.572Z,20.60
2023-04-24T17:43:30.004Z,20.62
2023-04-24T17:46:00.225Z,20.62
2023-04-24T17:48:28.633Z,20.63
2023-04-24T17:50:57.168Z,20.64
2023-04-24T17:53:25.713Z,20.65
2023-04-24T17:55:57.702Z,20.64
2023-04-24T17:58:26.443Z,20.67
2023-04-24T18:00:54.934Z,20.66
2023-04-24T18:03:25.273Z,20.67
2023-04-24T18:05:54.098Z,20.68
2023-04-24T18:08:22.560Z,20.68
2023-04-24T18:10:51.020Z,20.68
2023-04-24T18:13:19.626Z,20.69
2023-04-24T18:15:48.073Z,20.69
2023-04-24T18:18:17.729Z,20.67
2023-04-24T18:20:48.040Z,20.71
2023-04-24T18:23:16.665Z,20.70
2023-04-24T18:25:45.816Z,20.69
2023-04-24T18:28:14.231Z,20.72
2023-04-24T18:30:42.636Z,20.72
2023-04-24T18:33:11.429Z,20.72
2023-04-24T18:35:40.840Z,20.72
2023-04-24T18:38:10.599Z,20.72
2023-04-24T18:40:39.171Z,20.71
2023-04-24T18:43:07.739Z,20.72
2023-04-24T18:45:36.217Z,20.74
2023-04-24T18:48:05.032Z,20.73
2023-04-24T18:50:33.672Z,20.73
2023-04-24T18:53:02.761Z,20.75
2023-04-24T18:55:33.785Z,20.75
2023-04-24T18:58:02.390Z,20.77
2023-04-24T19:00:31.395Z,20.78
2023-04-24T19:03:00.248Z,20.77
2023-04-24T19:05:28.891Z,20.78
2023-04-24T19:07:57.382Z,20.77
2023-04-24T19:10:27.604Z,20.77
2023-04-24T19:12:57.556Z,20.77
2023-04-24T19:15:26.171Z,20.76
2023-04-24T19:17:54.711Z,20.76
2023-04-24T19:20:23.196Z,20.77
2023-04-24T19:22:51.999Z,20.77
2023-04-24T19:25:21.035Z,20.77
2023-04-24T19:27:49.485Z,20.78
2023-04-24T19:30:19.346Z,20.78
2023-04-24T19:32:47.845Z,20.78
2023-04-24T19:35:16.491Z,20.79
2023-04-24T19:37:45.020Z,20.79
2023-04-24T19:40:13.734Z,20.80
2023-04-24T19:42:44.569Z,20.80
2023-04-24T19:45:14.028Z,20.80
2023-04-24T19:47:44.130Z,20.78
2023-04-24T19:50:12.925Z,20.76
2023-04-24T19:52:41.492Z,20.70
2023-04-24T19:55:10.892Z,20.67
2023-04-24T19:57:39.415Z,20.62
2023-04-24T20:00:09.643Z,20.59
2023-04-24T20:02:38.452Z,20.54
2023-04-24T20:05:09.803Z,20.53
2023-04-24T20:07:38.590Z,20.48
2023-04-24T20:10:08.191Z,20.46
2023-04-24T20:12:36.726Z,20.43
2023-04-24T20:15:05.868Z,20.41
2023-04-24T20:17:34.342Z,20.38
2023-04-24T20:20:02.954Z,20.37
2023-04-24T20:22:38.581Z,20.36
2023-04-24T20:25:08.385Z,20.32
2023-04-24T20:27:37.226Z,20.31
2023-04-24T20:30:06.705Z,20.29
2023-04-24T20:32:35.216Z,20.29
2023-04-24T20:35:03.999Z,20.28
2023-04-24T20:37:33.758Z,20.26
2023-04-24T20:40:06.046Z,20.26
2023-04-24T20:42:34.651Z,20.26
2023-04-24T20:45:03.509Z,20.24
2023-04-24T20:47:32.063Z,20.23
2023-04-24T20:50:02.191Z,20.22
2023-04-24T20:52:30.748Z,20.22
2023-04-24T20:55:00.558Z,20.20
2023-04-24T20:57:29.136Z,20.20
2023-04-24T20:59:57.605Z,20.18
2023-04-24T21:02:26.221Z,20.18
2023-04-24T21:04:54.762Z,20.17
2023-04-24T21:07:23.323Z,20.17
2023-04-24T21:09:51.767Z,20.16
2023-04-24T21:12:21.638Z,20.16
2023-04-24T21:14:51.425Z,20.16
2023-04-24T21:17:20.077Z,20.15
2023-04-24T21:19:48.887Z,20.14
2023-04-24T21:22:17.286Z,20.15
2023-04-24T21:24:45.719Z,20.15
2023-04-24T21:27:14.258Z,20.13
2023-04-24T21:29:44.047Z,20.14
2023-04-24T21:32:12.527Z,20.13
2023-04-24T21:34:40.944Z,20.13
2023-04-24T21:37:09.376Z,20.13
2023-04-24T21:39:37.813Z,20.12
2023-04-24T21:42:06.439Z,20.13
2023-04-24T21:44:34.991Z,20.13
2023-04-24T21:47:04.786Z,20.12
2023-04-24T21:49:33.180Z,20.12
2023-04-24T21:52:01.569Z,20.10
2023-04-24T21:54:30.308Z,20.10
2023-04-24T21:56:58.804Z,20.10
2023-04-24T21:59:27.244Z,20.09
2023-04-24T22:01:55.854Z,20.10
2023-04-24T22:04:26.548Z,20.09
2023-04-24T22:06:55.197Z,20.08
2023-04-24T22:09:23.810Z,20.09
2023-04-24T22:11:52.321Z,20.09
2023-04-24T22:14:20.833Z,20.07
2023-04-24T22:16:50.163Z,20.06
2023-04-24T22:19:18.562Z,20.07
2023-04-24T22:21:48.418Z,20.07
2023-04-24T22:24:16.810Z,20.07
2023-04-24T22:26:45.682Z,20.06
2023-04-24T22:29:14.102Z,20.07
2023-04-24T22:31:42.546Z,20.05
2023-04-24T22:34:11.249Z,20.07
2023-04-24T22:36:39.751Z,20.06
2023-04-24T22:39:10.560Z,20.06
2023-04-24T22:41:38.976Z,20.06
2023-04-24T22:44:07.373Z,20.06
2023-04-24T22:46:35.765Z,20.05
2023-04-24T22:49:04.998Z,20.05
2023-04-24T22:51:34.199Z,20.04
2023-04-24T22:54:04.521Z,20.03
2023-04-24T22:56:35.880Z,20.04
2023-04-24T22:59:04.780Z,20.04
2023-04-24T23:01:33.694Z,20.03
2023-04-24T23:04:02.270Z,20.05
2023-04-24T23:06:30.877Z,20.03
2023-04-24T23:08:59.265Z,20.03
2023-04-24T23:11:27.961Z,20.03
2023-04-24T23:13:57.828Z,20.04
2023-04-24T23:16:26.339Z,20.03
2023-04-24T23:18:54.829Z,20.02
2023-04-24T23:21:23.751Z,20.02
2023-04-24T23:23:52.850Z,20.02
2023-04-24T23:26:21.263Z,20.02
2023-04-24T23:28:49.700Z,20.01
2023-04-24T23:31:19.715Z,20.01
2023-04-24T23:33:48.297Z,20.02
2023-04-24T23:36:17.007Z,20.01
2023-04-24T23:38:50.043Z,20.02
2023-04-24T23:41:19.461Z,20.02
2023-04-24T23:43:47.953Z,20.02
2023-04-24T23:46:16.623Z,20.02
2023-04-24T23:48:46.377Z,20.02
2023-04-24T23:51:15.554Z,20.02
2023-04-24T23:53:44.086Z,20.01
2023-04-24T23:56:12.502Z,20.02
2023-04-24T23:58:40.907Z,20.03
